Terminal Aerodrome Forecast
Issued by NWS

Home | Current Version | Previous Version | Text Only | Print | Product List | Glossary On
Versions: 1 2 3 4 5 6 7 8 9 10 11 12 13 14
000
FTUS44 KLIX 011100
TAFGPT
TAF
KGPT 011134Z 0112/0212 12010KT P6SM OVC110
     FM011400 14008KT P6SM VCSH BKN030
     FM020300 27009KT 5SM SHRA OVC050
     FM021000 33015KT P6SM BKN025=

USA.gov is the U.S. government's official web portal to all federal, state and local government web resources and services.